Time;durP1;ratioP1;P1;durP2;ratioP2;P2;SDS_P1;SDS_P2;PMS_P1;PMS_P2;Temp;Humidity;BMP_temperature;BMP_pressure;BME280_temperature;BME280_humidity;BME280_pressure;Samples;Min_cycle;Max_cycle;Signal;HPM_P1;HPM_P2
2022/04/23 00:01:44;;;;;;;35.60;25.70;;;7.30;99.90;;;;;;5014957;28;20820;-64
2022/04/23 00:04:12;;;;;;;38.38;26.65;;;7.20;99.90;;;;;;5015076;28;20073;-63
2022/04/23 00:06:40;;;;;;;35.95;25.95;;;7.30;99.90;;;;;;5014503;28;20064;-63
2022/04/23 00:09:07;;;;;;;37.20;27.23;;;7.30;99.90;;;;;;5014730;28;20045;-62
2022/04/23 00:11:34;;;;;;;37.42;27.52;;;7.20;99.90;;;;;;5014931;28;20510;-63
2022/04/23 00:14:02;;;;;;;32.33;23.23;;;7.20;99.90;;;;;;5015265;28;20053;-63
2022/04/23 00:16:29;;;;;;;31.38;23.23;;;7.20;99.90;;;;;;5013743;28;20079;-63
2022/04/23 00:18:56;;;;;;;;;;;7.20;99.90;;;;;;5014614;28;20045;-63
2022/04/23 00:21:23;;;;;;;30.83;22.67;;;7.20;99.90;;;;;;5015260;28;19932;-63
2022/04/23 00:23:49;;;;;;;29.55;22.08;;;7.20;99.90;;;;;;5014919;28;20052;-63
2022/04/23 00:26:16;;;;;;;;;;;7.20;99.90;;;;;;5014173;28;20841;-62
2022/04/23 00:28:43;;;;;;;27.87;21.67;;;7.30;99.90;;;;;;5013145;28;20383;-63
2022/04/23 00:31:10;;;;;;;;;;;7.30;99.90;;;;;;5016208;28;20061;-62
2022/04/23 00:33:38;;;;;;;33.38;24.13;;;7.20;99.90;;;;;;5014764;28;20492;-63
2022/04/23 00:36:09;;;;;;;34.28;23.58;;;7.30;99.90;;;;;;5014791;28;20149;-63
2022/04/23 00:38:42;;;;;;;28.80;21.80;;;7.30;99.90;;;;;;5014036;28;20048;-63
2022/04/23 00:41:43;;;;;;;30.30;21.75;;;7.20;99.90;;;;;;5013449;28;20084;-62
2022/04/23 00:44:01;;;;;;;31.10;24.17;;;7.20;99.90;;;;;;5015191;28;20049;-63
2022/04/23 00:46:27;;;;;;;33.40;22.77;;;7.20;99.90;;;;;;5013746;28;20069;-63
2022/04/23 00:48:54;;;;;;;34.10;24.33;;;7.10;99.90;;;;;;5010460;28;20049;-63
2022/04/23 00:51:21;;;;;;;;;;;7.10;99.90;;;;;;5014870;28;20223;-63
2022/04/23 00:53:50;;;;;;;38.13;25.60;;;7.00;99.90;;;;;;5014374;28;19944;-63
2022/04/23 00:56:17;;;;;;;40.17;27.63;;;7.00;99.90;;;;;;5029668;28;20052;-63
2022/04/23 00:58:44;;;;;;;37.72;27.50;;;6.90;99.90;;;;;;5012069;28;20045;-63
2022/04/23 01:01:11;;;;;;;38.97;26.70;;;6.80;99.90;;;;;;5015032;28;20172;-63
2022/04/23 01:03:39;;;;;;;;;;;6.80;99.90;;;;;;5012337;28;20545;-63
2022/04/23 01:06:06;;;;;;;38.63;24.00;;;6.80;99.90;;;;;;5013104;28;19929;-62
2022/04/23 01:08:33;;;;;;;33.20;23.30;;;6.80;99.90;;;;;;5013479;28;20111;-63
2022/04/23 01:11:00;;;;;;;;;;;6.80;99.90;;;;;;5014767;28;20119;-63
2022/04/23 01:13:26;;;;;;;35.15;25.23;;;6.80;99.90;;;;;;5014527;28;20529;-63
2022/04/23 01:16:00;;;;;;;;;;;6.80;99.90;;;;;;5014059;28;20053;-63
2022/04/23 01:18:27;;;;;;;32.70;24.52;;;6.80;99.90;;;;;;5011750;28;20468;-62
2022/04/23 01:20:59;;;;;;;29.50;22.52;;;6.80;99.90;;;;;;5014005;28;20127;-62
2022/04/23 01:23:26;;;;;;;30.60;22.67;;;6.80;99.90;;;;;;5014497;28;20072;-63
2022/04/23 01:25:54;;;;;;;35.22;24.17;;;6.80;99.90;;;;;;5013698;28;21076;-63
2022/04/23 01:28:22;;;;;;;27.20;21.00;;;6.80;99.90;;;;;;5012717;28;20042;-62
2022/04/23 01:30:53;;;;;;;34.08;22.17;;;6.80;99.90;;;;;;5014224;28;20080;-62
2022/04/23 01:33:20;;;;;;;29.23;22.48;;;6.80;99.90;;;;;;5013212;28;20171;-63
2022/04/23 01:35:47;;;;;;;32.63;25.20;;;6.80;99.90;;;;;;5014393;28;20514;-63
2022/04/23 01:38:14;;;;;;;38.20;26.17;;;6.80;99.90;;;;;;5011092;28;20477;-63
2022/04/23 01:40:42;;;;;;;35.67;25.13;;;6.80;99.90;;;;;;5012684;28;20068;-63
2022/04/23 01:43:09;;;;;;;26.92;21.02;;;6.80;99.90;;;;;;5013298;28;20053;-63
2022/04/23 01:45:37;;;;;;;29.30;22.10;;;6.80;99.90;;;;;;5013847;28;20045;-63
2022/04/23 01:48:05;;;;;;;31.67;24.00;;;6.80;99.90;;;;;;5009390;28;20054;-63
2022/04/23 01:50:34;;;;;;;37.53;25.98;;;6.80;99.90;;;;;;5017722;28;20033;-63
2022/04/23 01:53:02;;;;;;;29.10;21.58;;;6.80;99.90;;;;;;5015151;28;20049;-63
2022/04/23 01:55:30;;;;;;;28.17;21.75;;;6.80;99.90;;;;;;5014520;28;20570;-62
2022/04/23 01:57:57;;;;;;;35.50;24.90;;;6.80;99.90;;;;;;5011658;28;20053;-62
2022/04/23 02:00:23;;;;;;;;;;;6.90;99.90;;;;;;5014297;28;20103;-63
2022/04/23 02:02:50;;;;;;;36.78;25.80;;;6.90;99.90;;;;;;5013752;28;19932;-63
2022/04/23 02:05:17;;;;;;;;;;;7.00;99.90;;;;;;5014531;28;20137;-63
2022/04/23 02:07:44;;;;;;;;;;;7.00;99.90;;;;;;5013323;28;19925;-62
2022/04/23 02:10:12;;;;;;;;;;;7.00;99.90;;;;;;5013970;28;19921;-63
2022/04/23 02:12:38;;;;;;;;;;;7.10;99.90;;;;;;5013844;28;19936;-63
2022/04/23 02:15:07;;;;;;;;;;;7.10;99.90;;;;;;5014075;28;19925;-63
2022/04/23 02:17:37;;;;;;;;;;;7.10;99.90;;;;;;5012277;28;20450;-63
2022/04/23 02:20:04;;;;;;;;;;;7.10;99.90;;;;;;5014029;28;20019;-63
2022/04/23 02:22:31;;;;;;;;;;;7.10;99.90;;;;;;5012623;28;19932;-62
2022/04/23 02:24:58;;;;;;;;;;;7.10;99.90;;;;;;5013943;28;19925;-63
2022/04/23 02:27:25;;;;;;;;;;;7.10;99.90;;;;;;5013137;28;19933;-63
2022/04/23 02:29:52;;;;;;;;;;;7.10;99.90;;;;;;5013841;28;20007;-63
2022/04/23 02:32:19;;;;;;;;;;;7.10;99.90;;;;;;5014059;28;20026;-63
2022/04/23 02:34:45;;;;;;;;;;;7.10;99.90;;;;;;5013642;28;19921;-62
2022/04/23 02:37:13;;;;;;;;;;;7.10;99.90;;;;;;5011448;28;19925;-63
2022/04/23 02:39:40;;;;;;;;;;;7.00;99.90;;;;;;5013564;28;20028;-63
2022/04/23 02:42:09;;;;;;;;;;;7.00;99.90;;;;;;5013315;28;20023;-63
2022/04/23 02:44:36;;;;;;;;;;;7.00;99.90;;;;;;5014050;28;19963;-63
2022/04/23 02:47:04;;;;;;;;;;;7.00;99.90;;;;;;5012150;28;20055;-63
2022/04/23 02:49:31;;;;;;;;;;;6.90;99.90;;;;;;5012074;28;19933;-63
2022/04/23 02:51:58;;;;;;;;;;;6.80;99.90;;;;;;5013178;28;20353;-62
2022/04/23 02:54:24;;;;;;;;;;;6.70;99.90;;;;;;5013675;28;19928;-63
2022/04/23 02:56:53;;;;;;;;;;;6.70;99.90;;;;;;5016400;28;20078;-63
2022/04/23 02:59:19;;;;;;;;;;;6.60;99.90;;;;;;5015938;28;19937;-62
2022/04/23 03:01:46;;;;;;;;;;;6.60;99.90;;;;;;5016801;28;19925;-63
2022/04/23 03:04:15;;;;;;;;;;;6.60;99.90;;;;;;4996568;28;20288;-62
2022/04/23 03:06:42;;;;;;;;;;;6.50;99.90;;;;;;4997396;28;19948;-63
2022/04/23 03:09:08;;;;;;;;;;;6.50;99.90;;;;;;4995714;28;19932;-62
2022/04/23 03:11:35;;;;;;;;;;;6.40;99.90;;;;;;4997454;28;19983;-62
2022/04/23 03:14:04;;;;;;;;;;;6.40;99.90;;;;;;4997727;28;19922;-62
2022/04/23 03:16:31;;;;;;;;;;;6.40;99.90;;;;;;5010393;28;19921;-63
2022/04/23 03:18:57;;;;;;;;;;;6.40;99.90;;;;;;5016067;28;19932;-62
2022/04/23 03:21:24;;;;;;;;;;;6.40;99.90;;;;;;5016775;28;20084;-62
2022/04/23 03:23:51;;;;;;;;;;;6.40;99.90;;;;;;5016645;28;19925;-63
2022/04/23 03:26:18;;;;;;;;;;;6.40;99.90;;;;;;5016590;28;19924;-62
2022/04/23 03:28:44;;;;;;;;;;;6.40;99.90;;;;;;5015854;28;20184;-63
2022/04/23 03:31:11;;;;;;;;;;;6.40;99.90;;;;;;5016374;28;20610;-62
2022/04/23 03:33:38;;;;;;;;;;;6.40;99.90;;;;;;5015756;28;19933;-63
2022/04/23 03:36:05;;;;;;;;;;;6.40;99.90;;;;;;5017138;28;19932;-63
2022/04/23 03:38:32;;;;;;;;;;;6.40;99.90;;;;;;5015227;28;19983;-62
2022/04/23 03:40:59;;;;;;;;;;;6.40;99.90;;;;;;5013617;28;19929;-63
2022/04/23 03:43:26;;;;;;;;;;;6.40;99.90;;;;;;5015284;28;19932;-63
2022/04/23 03:45:53;;;;;;;;;;;6.40;99.90;;;;;;5014864;28;19928;-63
2022/04/23 03:48:20;;;;;;;;;;;6.40;99.90;;;;;;5013859;28;19932;-63
2022/04/23 03:50:49;;;;;;;;;;;6.50;99.90;;;;;;5015121;28;19936;-62
2022/04/23 03:53:16;;;;;;;;;;;6.40;99.90;;;;;;5015728;28;19967;-62
2022/04/23 03:55:42;;;;;;;;;;;6.40;99.90;;;;;;5015788;28;20333;-62
2022/04/23 03:58:09;;;;;;;;;;;6.40;99.90;;;;;;5015157;28;19929;-63
2022/04/23 04:00:36;;;;;;;;;;;6.40;99.90;;;;;;5014487;28;19925;-63
2022/04/23 04:03:02;;;;;;;;;;;6.40;99.90;;;;;;5015994;28;20028;-62
2022/04/23 04:05:31;;;;;;;;;;;6.40;99.90;;;;;;5016093;28;20027;-62
2022/04/23 04:07:58;;;;;;;;;;;6.40;99.90;;;;;;5013921;28;19986;-62
2022/04/23 04:10:25;;;;;;;;;;;6.40;99.90;;;;;;5015334;28;20419;-62
2022/04/23 04:12:54;;;;;;;;;;;6.40;99.90;;;;;;5015419;28;19975;-62
2022/04/23 04:15:21;;;;;;;;;;;6.40;99.90;;;;;;5015420;28;20416;-63
2022/04/23 04:17:51;;;;;;;;;;;6.40;99.90;;;;;;5029434;28;19925;-62
2022/04/23 04:20:18;;;;;;;;;;;6.40;99.90;;;;;;5014702;28;20323;-62
2022/04/23 04:22:45;;;;;;;;;;;6.40;99.90;;;;;;5015588;28;19925;-62
2022/04/23 04:25:13;;;;;;;;;;;6.40;99.90;;;;;;5015323;28;19925;-62
2022/04/23 04:27:40;;;;;;;;;;;6.40;99.90;;;;;;5015485;28;19929;-62
2022/04/23 04:30:08;;;;;;;;;;;6.40;99.90;;;;;;5015414;28;19924;-62
2022/04/23 04:32:35;;;;;;;;;;;6.30;99.90;;;;;;5015265;28;19925;-61
2022/04/23 04:35:02;;;;;;;;;;;6.30;99.90;;;;;;5015068;28;19925;-62
2022/04/23 04:37:28;;;;;;;;;;;6.30;99.90;;;;;;5014334;28;19928;-61
2022/04/23 04:39:55;;;;;;;;;;;6.40;99.90;;;;;;5014548;28;19999;-62
2022/04/23 04:42:22;;;;;;;;;;;6.40;99.90;;;;;;5015467;28;19925;-62
2022/04/23 04:44:49;;;;;;;;;;;6.40;99.90;;;;;;5015197;28;20571;-61
2022/04/23 04:47:16;;;;;;;;;;;6.40;99.90;;;;;;4995443;28;19925;-62
2022/04/23 04:49:43;;;;;;;;;;;6.40;99.90;;;;;;5015030;28;19936;-62
2022/04/23 04:52:10;;;;;;;;;;;6.40;99.90;;;;;;5013137;28;19924;-62
2022/04/23 04:54:36;;;;;;;;;;;6.40;99.90;;;;;;5014295;28;20002;-62
2022/04/23 04:57:04;;;;;;;;;;;6.40;99.90;;;;;;5014832;28;20012;-62
2022/04/23 04:59:35;;;;;;;;;;;6.50;99.90;;;;;;5015302;28;20390;-62
2022/04/23 05:02:02;;;;;;;;;;;6.50;99.90;;;;;;5013671;28;19928;-62
2022/04/23 05:04:30;;;;;;;;;;;6.50;99.90;;;;;;5013494;28;19933;-62
2022/04/23 05:06:56;;;;;;;;;;;6.50;99.90;;;;;;5014601;28;20292;-61
2022/04/23 05:09:23;;;;;;;;;;;6.60;99.90;;;;;;5014238;28;20035;-62
2022/04/23 05:11:50;;;;;;;;;;;6.60;99.90;;;;;;5030183;28;20685;-62
2022/04/23 05:14:18;;;;;;;;;;;6.60;99.90;;;;;;5015199;28;19983;-62
2022/04/23 05:16:44;;;;;;;;;;;6.60;99.90;;;;;;5013003;28;19994;-57
2022/04/23 05:19:11;;;;;;;;;;;6.60;99.90;;;;;;5013969;28;20032;-57
2022/04/23 05:21:38;;;;;;;;;;;6.60;99.90;;;;;;5014541;28;20143;-54
2022/04/23 05:24:06;;;;;;;;;;;6.70;99.90;;;;;;5014742;28;19925;-57
2022/04/23 05:26:34;;;;;;;;;;;6.70;99.90;;;;;;5014479;28;19951;-58
2022/04/23 05:29:01;;;;;;;;;;;6.80;99.90;;;;;;5028430;28;20020;-56
2022/04/23 05:31:27;;;;;;;;;;;6.80;99.90;;;;;;5014277;28;19924;-56
2022/04/23 05:33:55;;;;;;;;;;;6.90;99.90;;;;;;5014225;28;20415;-58
2022/04/23 05:36:21;;;;;;;;;;;7.00;99.90;;;;;;5013016;28;19924;-55
2022/04/23 05:38:48;;;;;;;;;;;7.00;99.90;;;;;;5011121;28;19936;-57
2022/04/23 05:41:15;;;;;;;;;;;7.10;99.90;;;;;;5013898;28;19965;-57
2022/04/23 05:43:41;;;;;;;;;;;7.10;99.90;;;;;;5012426;28;19931;-56
2022/04/23 05:46:08;;;;;;;;;;;7.20;99.90;;;;;;5013356;28;19995;-57
2022/04/23 05:48:39;;;;;;;;;;;7.20;99.90;;;;;;5013091;28;20559;-56
2022/04/23 05:51:06;;;;;;;;;;;7.30;99.90;;;;;;5013868;28;19961;-56
2022/04/23 05:53:33;;;;;;;;;;;7.30;99.90;;;;;;5009971;28;20687;-57
2022/04/23 05:56:00;;;;;;;;;;;7.40;99.90;;;;;;5014332;28;19925;-56
2022/04/23 05:58:26;;;;;;;;;;;7.40;99.90;;;;;;5013871;28;19932;-58
2022/04/23 06:00:54;;;;;;;;;;;7.40;99.90;;;;;;5011242;28;19937;-54
2022/04/23 06:03:21;;;;;;;;;;;7.50;99.90;;;;;;5013624;28;19925;-55
2022/04/23 06:05:48;;;;;;;;;;;7.50;99.90;;;;;;5014423;28;19983;-56
2022/04/23 06:08:14;;;;;;;;;;;7.50;99.90;;;;;;5012163;28;20571;-56
2022/04/23 06:10:41;;;;;;;;;;;7.60;99.90;;;;;;5014487;28;20409;-54
2022/04/23 06:13:08;;;;;;;;;;;7.60;99.90;;;;;;5013467;28;19921;-56
2022/04/23 06:15:35;;;;;;;;;;;7.60;99.90;;;;;;5013171;28;19924;-57
2022/04/23 06:18:02;;;;;;;;;;;7.60;99.90;;;;;;5013128;28;19994;-57
2022/04/23 06:20:29;;;;;;;;;;;7.70;99.90;;;;;;5013137;28;19975;-56
2022/04/23 06:22:56;;;;;;;;;;;7.70;99.90;;;;;;5013193;28;20003;-57
2022/04/23 06:25:22;;;;;;;;;;;7.70;99.90;;;;;;5013467;28;19924;-56
2022/04/23 06:27:50;;;;;;;;;;;7.70;99.90;;;;;;5013163;28;20002;-55
2022/04/23 06:30:16;;;;;;;;;;;7.80;99.90;;;;;;5016088;28;19925;-57
2022/04/23 06:32:44;;;;;;;;;;;7.90;99.90;;;;;;5016955;28;20514;-56
2022/04/23 06:35:11;;;;;;;;;;;7.90;99.90;;;;;;5017163;28;19960;-57
2022/04/23 06:37:38;;;;;;;;;;;8.00;99.90;;;;;;5016304;28;19925;-58
2022/04/23 06:40:05;;;;;;;;;;;8.10;99.90;;;;;;5017012;28;20037;-58
2022/04/23 06:42:32;;;;;;;;;;;8.10;99.90;;;;;;5017583;28;19932;-57
2022/04/23 06:45:03;;;;;;;;;;;8.20;99.90;;;;;;5015659;28;20132;-58
2022/04/23 06:47:29;;;;;;;;;;;8.30;99.90;;;;;;5016791;28;19975;-57
2022/04/23 06:49:57;;;;;;;;;;;8.30;99.90;;;;;;5017256;28;19924;-55
2022/04/23 06:52:24;;;;;;;;;;;8.40;99.90;;;;;;5016413;28;20598;-57
2022/04/23 06:54:54;;;;;;;;;;;8.50;99.90;;;;;;5015066;28;19987;-57
2022/04/23 06:57:25;;;;;;;;;;;8.60;99.90;;;;;;5016460;28;19986;-58
2022/04/23 06:59:52;;;;;;;;;;;8.60;99.90;;;;;;5016317;28;20606;-57
2022/04/23 07:02:19;;;;;;;;;;;8.70;99.90;;;;;;5015913;28;19960;-56
2022/04/23 07:04:46;;;;;;;;;;;8.70;99.90;;;;;;5017359;28;20048;-57
2022/04/23 07:07:13;;;;;;;;;;;8.70;99.90;;;;;;5015768;28;19978;-57
2022/04/23 07:09:40;;;;;;;;;;;8.70;99.90;;;;;;5016758;28;19921;-56
2022/04/23 07:12:07;;;;;;;;;;;8.70;99.90;;;;;;5016926;28;20227;-55
2022/04/23 07:14:33;;;;;;;;;;;8.70;99.90;;;;;;5011372;28;19931;-55
2022/04/23 07:17:06;;;;;;;;;;;8.70;99.90;;;;;;5014224;28;19929;-56
2022/04/23 07:19:37;;;;;;;;;;;8.70;99.90;;;;;;5007438;28;19926;-57
2022/04/23 07:22:04;;;;;;;;;;;8.80;99.90;;;;;;4995078;28;20020;-55
2022/04/23 07:24:31;;;;;;;;;;;8.80;99.90;;;;;;5013421;28;20402;-55
2022/04/23 07:26:59;;;;;;;;;;;8.90;99.90;;;;;;5016076;28;19933;-55
2022/04/23 07:29:25;;;;;;;;;;;8.90;99.90;;;;;;5015295;28;20273;-56
2022/04/23 07:31:52;;;;;;;;;;;9.00;99.90;;;;;;5016131;28;19963;-56
2022/04/23 07:39:51;;;;;;;;;;;9.20;99.90;;;;;;5015655;28;19968;-55
2022/04/23 07:42:17;;;;;;;;;;;9.30;99.90;;;;;;5015651;28;19925;-53
2022/04/23 07:44:44;;;;;;;;;;;9.40;99.90;;;;;;5016231;28;19924;-56
2022/04/23 07:47:17;;;;;;;;;;;9.40;99.90;;;;;;5015257;28;19925;-57
2022/04/23 07:49:44;;;;;;;;;;;9.50;99.90;;;;;;5014935;28;19979;-56
2022/04/23 07:52:10;;;;;;;;;;;9.50;99.90;;;;;;5014684;28;19929;-58
2022/04/23 07:54:40;;;;;;;;;;;9.50;99.90;;;;;;5014713;28;19924;-58
2022/04/23 07:57:07;;;;;;;;;;;9.50;99.90;;;;;;5010194;28;19925;-56
2022/04/23 07:59:34;;;;;;;;;;;9.50;99.90;;;;;;5015901;28;19921;-56
2022/04/23 08:02:02;;;;;;;;;;;9.60;99.90;;;;;;5014415;28;20022;-55
2022/04/23 08:04:29;;;;;;;;;;;9.60;99.90;;;;;;5016180;28;19928;-57
2022/04/23 08:06:56;;;;;;;;;;;9.60;99.90;;;;;;5014857;28;19949;-58
2022/04/23 08:09:23;;;;;;;;;;;9.60;99.90;;;;;;5014424;28;19925;-56
2022/04/23 08:11:49;;;;;;;;;;;9.70;99.90;;;;;;5016157;28;19963;-55
2022/04/23 08:14:16;;;;;;;;;;;9.70;99.90;;;;;;5014496;28;19960;-55
2022/04/23 08:16:45;;;;;;;;;;;9.70;99.90;;;;;;5015169;28;19924;-56
2022/04/23 08:19:12;;;;;;;;;;;9.70;99.90;;;;;;5015363;28;19925;-56
2022/04/23 08:21:38;;;;;;;;;;;9.70;99.90;;;;;;5014938;28;19921;-58
2022/04/23 08:24:05;;;;;;;;;;;9.60;99.90;;;;;;5015924;28;20450;-54
2022/04/23 08:26:32;;;;;;;;;;;9.70;99.90;;;;;;5013509;28;19925;-56
2022/04/23 08:31:44;;;;;;;;;;;9.80;99.90;;;;;;5013940;28;20422;-59
2022/04/23 08:34:12;;;;;;;;;;;9.80;99.90;;;;;;5015583;28;19929;-58
2022/04/23 08:36:39;;;;;;;;;;;9.80;99.90;;;;;;5014953;28;19928;-59
2022/04/23 08:39:06;;;;;;;;;;;9.80;99.90;;;;;;5014286;28;19925;-59
2022/04/23 08:41:34;;;;;;;;;;;9.90;99.90;;;;;;5014921;28;19975;-58
2022/04/23 08:44:07;;;;;;;;;;;9.90;99.90;;;;;;5014486;28;19925;-58
2022/04/23 08:46:35;;;;;;;;;;;10.00;99.90;;;;;;5014012;28;19921;-58
2022/04/23 08:49:05;;;;;;;;;;;10.00;99.90;;;;;;5013567;28;19924;-58
2022/04/23 08:51:33;;;;;;;;;;;10.10;99.90;;;;;;5014690;28;19925;-58
2022/04/23 08:54:03;;;;;;;;;;;10.20;99.90;;;;;;5012303;28;19967;-58
2022/04/23 08:56:29;;;;;;;;;;;10.20;99.90;;;;;;5013228;28;19982;-58
2022/04/23 08:58:56;;;;;;;;;;;10.30;99.90;;;;;;5013607;28;19960;-59
2022/04/23 09:01:24;;;;;;;;;;;10.30;99.90;;;;;;5014289;28;19978;-59
2022/04/23 09:03:51;;;;;;;;;;;10.40;99.90;;;;;;5014011;28;20272;-58
2022/04/23 09:06:18;;;;;;;;;;;10.40;99.90;;;;;;5014004;28;20035;-58
2022/04/23 09:09:04;;;;;;;;;;;10.50;99.90;;;;;;5012767;28;19921;-59
2022/04/23 09:11:37;;;;;;;;;;;10.60;99.90;;;;;;5014291;28;19932;-58
2022/04/23 09:14:04;;;;;;;;;;;10.60;99.90;;;;;;5014596;28;20116;-59
2022/04/23 09:25:10;;;;;;;;;;;10.90;99.90;;;;;;5014350;28;20177;-58
2022/04/23 09:27:37;;;;;;;;;;;11.00;99.90;;;;;;5011197;28;19930;-58
2022/04/23 09:30:05;;;;;;;;;;;11.00;99.90;;;;;;5014572;28;19925;-59
2022/04/23 09:32:32;;;;;;;;;;;11.10;99.90;;;;;;5014630;28;19978;-55
2022/04/23 09:35:03;;;;;;;;;;;11.10;99.90;;;;;;5012933;28;19925;-55
2022/04/23 09:40:22;;;;;;;;;;;11.30;99.90;;;;;;5014051;28;19925;-56
2022/04/23 09:42:56;;;;;;;;;;;11.40;99.90;;;;;;5014768;28;19929;-58
2022/04/23 09:45:26;;;;;;;;;;;11.40;99.90;;;;;;5014697;28;19929;-58
2022/04/23 09:47:56;;;;;;;;;;;11.50;99.90;;;;;;5014480;28;19931;-57
2022/04/23 09:50:23;;;;;;;;;;;11.60;99.90;;;;;;5014205;28;19928;-58
2022/04/23 09:52:50;;;;;;;;;;;11.70;99.90;;;;;;5009992;28;19925;-57
2022/04/23 09:55:23;;;;;;;;;;;11.80;99.90;;;;;;4994093;28;20344;-57
2022/04/23 09:57:51;;;;;;;;;;;11.90;99.90;;;;;;4991397;28;19925;-56
2022/04/23 10:00:18;;;;;;;;;;;12.00;99.90;;;;;;4992688;28;19979;-57
2022/04/23 10:02:45;;;;;;;;;;;12.20;99.90;;;;;;4994360;28;19964;-57
2022/04/23 10:05:15;;;;;;;;;;;12.30;99.90;;;;;;4996584;28;19953;-54
2022/04/23 10:07:43;;;;;;;;;;;12.50;99.90;;;;;;4997560;28;19929;-57
2022/04/23 10:10:12;;;;;;;;;;;12.60;99.90;;;;;;4997886;28;19995;-56
2022/04/23 10:12:43;;;;;;;;;;;12.70;99.90;;;;;;4997091;28;19925;-58
2022/04/23 10:15:10;;;;;;;;;;;12.90;99.90;;;;;;4999981;28;19937;-57
2022/04/23 10:17:37;;;;;;;;;;;13.00;99.90;;;;;;4997716;28;20314;-57
2022/04/23 10:20:05;;;;;;;;;;;13.10;99.90;;;;;;5002538;28;19925;-56
2022/04/23 10:22:32;;;;;;;;;;;13.30;99.90;;;;;;5004436;28;20478;-57
2022/04/23 10:25:17;;;;;;;;;;;13.40;99.90;;;;;;5003559;28;19929;-58
2022/04/23 10:27:45;;;;;;;;;;;13.50;99.90;;;;;;5003817;28;19928;-56
2022/04/23 10:30:12;;;;;;;;;;;13.60;99.90;;;;;;5017311;28;19940;-57
2022/04/23 10:32:40;;;;;;;;;;;13.70;99.90;;;;;;5032590;28;20376;-57
2022/04/23 10:35:19;;;;;;;;;;;13.80;99.90;;;;;;5017672;28;19932;-57
2022/04/23 10:37:53;;;;;;;;;;;13.90;99.90;;;;;;5017575;28;20023;-55
2022/04/23 10:40:21;;;;;;;;;;;14.10;99.90;;;;;;5025112;28;19925;-56
2022/04/23 10:43:19;;;;;;;;;;;14.20;99.90;;;;;;5017941;28;19960;-59
2022/04/23 10:45:45;;;;;;;;;;;14.30;99.90;;;;;;5016333;28;19925;-57
2022/04/23 10:48:24;;;;;;;;;;;14.40;99.90;;;;;;5016073;28;20019;-57
2022/04/23 10:51:11;;;;;;;;;;;14.50;99.90;;;;;;5016699;28;19932;-58
2022/04/23 10:53:37;;;;;;;;;;;14.60;99.90;;;;;;5017102;28;19928;-59
2022/04/23 10:56:05;;;;;;;;;;;14.60;99.90;;;;;;5015070;28;20351;-57
2022/04/23 10:58:32;;;;;;;;;;;14.70;99.90;;;;;;4997359;28;19932;-58
2022/04/23 11:01:20;;;;;;;;;;;14.70;99.90;;;;;;4997455;28;19928;-67
2022/04/23 11:04:06;;;;;;;;;;;14.70;99.90;;;;;;5010666;28;20614;-57
2022/04/23 11:12:53;;;;;;;;;;;14.90;99.90;;;;;;4996243;28;19935;-58
2022/04/23 11:15:20;;;;;;;;;;;14.90;99.90;;;;;;5000652;28;20654;-58
2022/04/23 11:17:49;;;;;;;;;;;15.00;99.90;;;;;;5015872;28;19925;-57
2022/04/23 11:20:26;;;;;;;;;;;15.00;99.90;;;;;;5016708;28;19986;-58
2022/04/23 11:22:53;;;;;;;;;;;15.20;99.90;;;;;;5016806;28;19987;-58
2022/04/23 11:25:21;;;;;;;;;;;15.30;99.90;;;;;;5015975;28;20027;-56
2022/04/23 11:27:48;;;;;;;;;;;15.60;99.90;;;;;;5016720;28;20745;-57
2022/04/23 11:30:15;;;;;;;;;;;15.80;99.90;;;;;;5016376;28;19932;-56
2022/04/23 11:32:42;;;;;;;;;;;16.00;99.90;;;;;;5015278;28;20130;-58
2022/04/23 11:35:09;;;;;;;;;;;16.10;99.90;;;;;;5016450;28;19986;-60
2022/04/23 11:37:37;;;;;;;;;;;16.00;99.90;;;;;;5016820;28;19924;-58
2022/04/23 11:40:10;;;;;;;;;;;15.90;99.90;;;;;;5016134;28;19925;-57
2022/04/23 11:42:37;;;;;;;;;;;15.80;99.90;;;;;;5017062;28;20734;-57
2022/04/23 11:45:04;;;;;;;;;;;15.60;99.90;;;;;;5017461;28;20889;-57
2022/04/23 11:47:31;;;;;;;;;;;15.50;99.90;;;;;;5014128;28;19925;-57
2022/04/23 11:50:07;;;;;;;;;;;15.30;99.90;;;;;;5015346;28;19925;-56
2022/04/23 11:52:33;;;;;;;;;;;15.10;99.90;;;;;;5016917;28;19995;-56
2022/04/23 11:55:01;;;;;;;;;;;14.80;99.90;;;;;;5016399;28;19928;-60
2022/04/23 11:57:27;;;;;;;;;;;14.60;99.90;;;;;;5015774;28;19925;-58
2022/04/23 11:59:59;;;;;;;;;;;14.40;99.90;;;;;;5013368;28;20346;-61
2022/04/23 12:02:27;;;;;;;;;;;14.20;99.90;;;;;;5015411;28;19925;-61
2022/04/23 12:04:55;;;;;;;;;;;13.90;99.90;;;;;;5015200;28;19931;-60
2022/04/23 12:07:22;;;;;;;;;;;13.80;99.90;;;;;;5015736;28;19925;-59
2022/04/23 12:09:52;;;;;;;;;;;13.70;99.90;;;;;;5014772;28;20566;-60
2022/04/23 12:12:20;;;;;;;;;;;13.60;99.90;;;;;;5015963;28;19925;-60
2022/04/23 12:14:48;;;;;;;;;;;13.60;99.90;;;;;;5015833;28;20011;-60
2022/04/23 12:17:41;;;;;;;;;;;13.60;99.90;;;;;;5013901;28;19924;-59
2022/04/23 12:20:12;;;;;;;;;;;13.60;99.90;;;;;;5017081;28;19952;-60
2022/04/23 12:22:39;;;;;;;;;;;13.50;99.90;;;;;;5015247;28;20848;-60
2022/04/23 12:25:09;;;;;;;;;;;13.40;99.90;;;;;;5015258;28;20056;-60
2022/04/23 12:27:54;;;;;;;;;;;13.40;99.90;;;;;;5012698;28;19928;-59
2022/04/23 12:41:55;;;;;;;;;;;13.90;99.90;;;;;;4996314;28;19924;-60
2022/04/23 12:44:23;;;;;;;;;;;14.10;99.90;;;;;;4995895;28;19925;-60
2022/04/23 12:46:53;;;;;;;;;;;14.30;99.90;;;;;;4994786;28;19929;-60
2022/04/23 12:49:22;;;;;;;;;;;14.50;99.90;;;;;;5012134;28;20047;-59
2022/04/23 12:51:53;;;;;;;;;;;14.70;99.90;;;;;;5014576;28;19932;-60
2022/04/23 12:54:23;;;;;;;;;;;14.90;99.90;;;;;;5013288;28;19928;-60
2022/04/23 12:56:51;;;;;;;;;;;15.10;99.90;;;;;;5014800;28;19952;-59
2022/04/23 12:59:18;;;;;;;;;;;15.30;99.90;;;;;;5019745;28;19999;-60
2022/04/23 13:01:44;;;;;;;;;;;15.40;99.90;;;;;;4993795;28;19987;-56
2022/04/23 13:04:13;;;;;;;;;;;15.40;99.90;;;;;;5010551;28;19925;-57
2022/04/23 13:09:25;;;;;;;;;;;15.60;99.90;;;;;;4994694;28;20003;-59
2022/04/23 13:11:56;;;;;;;;;;;15.60;99.90;;;;;;4995767;28;20032;-58
2022/04/23 13:14:23;;;;;;;;;;;15.60;99.90;;;;;;4995124;28;19933;-59
2022/04/23 13:16:50;;;;;;;;;;;15.70;99.90;;;;;;5009811;28;19961;-60
2022/04/23 13:19:22;;;;;;;;;;;15.70;99.90;;;;;;5012810;28;19983;-59
2022/04/23 13:21:48;;;;;;;;;;;15.80;99.90;;;;;;5014999;28;19925;-60
2022/04/23 13:24:16;;;;;;;;;;;15.80;99.90;;;;;;5014185;28;20345;-59
2022/04/23 13:26:43;;;;;;;;;;;15.80;99.90;;;;;;5013733;28;19964;-59
2022/04/23 13:29:09;;;;;;;;;;;15.80;99.90;;;;;;5010358;28;19925;-59
2022/04/23 13:31:39;;;;;;;;;;;15.80;99.90;;;;;;5011847;28;19925;-59
2022/04/23 13:34:06;;;;;;;;;;;15.80;99.90;;;;;;5013306;28;20587;-56
2022/04/23 13:36:34;;;;;;;;;;;15.90;99.90;;;;;;5012719;28;19928;-57
2022/04/23 13:39:00;;;;;;;;;;;16.00;99.90;;;;;;5012427;28;19932;-58
2022/04/23 13:41:27;;;;;;;;;;;15.90;99.90;;;;;;5013741;28;20404;-57
2022/04/23 13:43:54;;;;;;;;;;;15.80;99.90;;;;;;5015069;28;19925;-58
2022/04/23 13:46:21;;;;;;;;;;;15.80;99.90;;;;;;5014367;28;19925;-55
2022/04/23 13:48:47;;;;;;;;;;;15.80;99.90;;;;;;5013061;28;19935;-58
2022/04/23 13:51:14;;;;;;;;;;;15.80;99.90;;;;;;5014240;28;19929;-58
2022/04/23 13:53:41;;;;;;;;;;;15.90;99.90;;;;;;5013705;28;19924;-57
2022/04/23 13:56:07;;;;;;;;;;;16.00;99.90;;;;;;5015058;28;19948;-57
2022/04/23 13:58:34;;;;;;;;;;;16.10;99.90;;;;;;5013279;28;20334;-58
2022/04/23 14:01:01;;;;;;;;;;;16.00;99.90;;;;;;5012485;28;19936;-58
2022/04/23 14:11:44;;;;;;;;;;;15.60;99.90;;;;;;5014476;28;20576;-54
2022/04/23 14:14:13;;;;;;;;;;;15.50;99.90;;;;;;5011120;28;20089;-57
2022/04/23 14:16:43;;;;;;;;;;;15.40;99.90;;;;;;5012131;28;19925;-57
2022/04/23 14:19:10;;;;;;;;;;;15.30;99.90;;;;;;5014055;28;20015;-56
2022/04/23 14:21:37;;;;;;;;;;;15.10;99.90;;;;;;5012440;28;19936;-57
2022/04/23 14:24:04;;;;;;;;;;;15.10;99.90;;;;;;5012911;28;19955;-55
2022/04/23 14:26:31;;;;;;;;;;;15.00;99.90;;;;;;5014810;28;20010;-56
2022/04/23 14:28:58;;;;;;;;;;;14.90;99.90;;;;;;5012980;28;20015;-56
2022/04/23 14:31:25;;;;;;;;;;;14.80;99.90;;;;;;5014117;28;19928;-56
2022/04/23 14:33:51;;;;;;;;;;;14.80;99.90;;;;;;5013853;28;19925;-56
2022/04/23 14:36:18;;;;;;;;;;;14.70;99.90;;;;;;5014783;28;20532;-56
2022/04/23 14:38:45;;;;;;;;;;;14.60;99.90;;;;;;5011320;28;19929;-58
2022/04/23 14:41:13;;;;;;;;;;;14.50;99.90;;;;;;5014069;28;20875;-55
2022/04/23 14:43:40;;;;;;;;;;;14.40;99.90;;;;;;5014726;28;19979;-61
2022/04/23 14:46:06;;;;;;;;;;;14.30;99.90;;;;;;5013936;28;20032;-60
2022/04/23 14:48:33;;;;;;;;;;;14.30;99.90;;;;;;5011698;28;19925;-61
2022/04/23 14:53:45;;;;;;;;;;;14.30;99.90;;;;;;5013927;28;19933;-58
2022/04/23 14:56:12;;;;;;;;;;;14.20;99.90;;;;;;5016422;28;19924;-60
2022/04/23 14:58:39;;;;;;;;;;;14.20;99.90;;;;;;5017463;28;19982;-58
2022/04/23 15:01:11;;;;;;;;;;;14.10;99.90;;;;;;5016254;28;19925;-57
2022/04/23 15:03:38;;;;;;;;;;;14.10;99.90;;;;;;5016873;28;19921;-57
2022/04/23 15:06:05;;;;;;;;;;;14.10;99.90;;;;;;5018103;28;19925;-57